createdAt,value
2018-10-12T00:00:43.621Z,64.80
2018-10-12T00:03:12.428Z,64.90
2018-10-12T00:05:41.178Z,65.00
2018-10-12T00:08:09.526Z,65.30
2018-10-12T00:10:37.908Z,65.40
2018-10-12T00:13:06.283Z,65.50
2018-10-12T00:15:34.613Z,65.70
2018-10-12T00:18:02.925Z,65.80
2018-10-12T00:20:31.251Z,65.90
2018-10-12T00:22:59.565Z,66.00
2018-10-12T00:25:27.887Z,66.20
2018-10-12T00:27:56.201Z,66.10
2018-10-12T00:30:24.554Z,66.30
2018-10-12T00:32:52.859Z,66.40
2018-10-12T00:35:21.191Z,66.50
2018-10-12T00:37:49.505Z,66.80
2018-10-12T00:40:17.833Z,67.00
2018-10-12T00:42:46.427Z,66.90
2018-10-12T00:45:14.767Z,67.20
2018-10-12T00:47:43.080Z,67.20
2018-10-12T00:50:11.413Z,67.50
2018-10-12T00:52:39.722Z,67.60
2018-10-12T00:55:08.063Z,67.60
2018-10-12T00:57:36.364Z,67.60
2018-10-12T01:00:04.730Z,67.90
2018-10-12T01:02:33.037Z,67.90
2018-10-12T01:05:01.369Z,68.10
2018-10-12T01:07:29.679Z,68.20
2018-10-12T01:09:58.009Z,68.20
2018-10-12T01:12:34.676Z,68.40
2018-10-12T01:15:03.485Z,68.50
2018-10-12T01:17:32.657Z,68.60
2018-10-12T01:20:01.122Z,68.60
2018-10-12T01:22:29.924Z,68.60
2018-10-12T01:24:59.559Z,68.70
2018-10-12T01:27:28.224Z,68.90
2018-10-12T01:29:56.626Z,68.90
2018-10-12T01:32:30.463Z,69.20
2018-10-12T01:34:58.793Z,69.40
2018-10-12T01:37:27.108Z,69.40
2018-10-12T01:39:55.451Z,69.40
2018-10-12T01:42:23.748Z,69.50
2018-10-12T01:44:52.104Z,69.60
2018-10-12T01:47:20.444Z,70.00
2018-10-12T01:49:48.792Z,70.00
2018-10-12T01:52:17.091Z,70.10
2018-10-12T01:54:45.415Z,70.10
2018-10-12T01:57:13.997Z,70.20
2018-10-12T01:59:42.331Z,70.40
2018-10-12T02:02:10.636Z,70.70
2018-10-12T02:04:38.963Z,70.80
2018-10-12T02:07:07.291Z,71.10
2018-10-12T02:09:35.612Z,71.30
2018-10-12T02:12:03.935Z,71.30
2018-10-12T02:14:32.272Z,71.50
2018-10-12T02:17:00.819Z,71.60
2018-10-12T02:19:29.160Z,71.70
2018-10-12T02:21:57.468Z,71.70
2018-10-12T02:24:25.787Z,71.80
2018-10-12T02:26:54.100Z,72.00
2018-10-12T02:29:22.426Z,72.20
2018-10-12T02:31:50.733Z,72.20
2018-10-12T02:34:19.085Z,72.30
2018-10-12T02:36:47.393Z,72.30
2018-10-12T02:39:16.232Z,72.40
2018-10-12T02:41:44.564Z,72.40
2018-10-12T02:44:13.089Z,72.50
2018-10-12T02:46:41.449Z,72.70
2018-10-12T02:49:09.757Z,72.70
2018-10-12T02:51:38.244Z,72.90
2018-10-12T02:54:06.540Z,73.00
2018-10-12T02:56:34.956Z,73.10
2018-10-12T02:59:03.255Z,73.20
2018-10-12T03:01:31.580Z,73.20
2018-10-12T03:03:59.896Z,73.10
2018-10-12T03:06:28.230Z,73.20
2018-10-12T03:08:56.540Z,73.20
2018-10-12T03:11:24.906Z,73.50
2018-10-12T03:13:53.218Z,73.60
2018-10-12T03:16:21.549Z,73.60
2018-10-12T03:18:49.871Z,73.40
2018-10-12T03:21:18.196Z,74.20
2018-10-12T03:23:46.517Z,74.80
2018-10-12T03:26:21.692Z,74.60
2018-10-12T03:28:49.971Z,74.50
2018-10-12T03:31:18.340Z,74.60
2018-10-12T03:33:46.680Z,74.70
2018-10-12T03:36:15.028Z,74.60
2018-10-12T03:38:43.377Z,74.70
2018-10-12T03:41:11.720Z,74.80
2018-10-12T03:43:40.043Z,75.10
2018-10-12T03:46:08.377Z,75.00
2018-10-12T03:48:36.688Z,75.00
2018-10-12T03:51:05.056Z,75.00
2018-10-12T03:53:33.372Z,74.80
2018-10-12T03:56:01.696Z,74.80
2018-10-12T03:58:30.023Z,74.80
2018-10-12T04:00:58.356Z,74.60
2018-10-12T04:03:26.656Z,75.30
2018-10-12T04:05:55.084Z,75.10
2018-10-12T04:08:23.399Z,75.40
2018-10-12T04:10:51.716Z,75.60
2018-10-12T04:13:20.036Z,75.60
2018-10-12T04:15:48.360Z,75.80
2018-10-12T04:18:16.700Z,75.80
2018-10-12T04:20:45.021Z,75.80
2018-10-12T04:23:13.328Z,75.90
2018-10-12T04:25:41.663Z,75.60
2018-10-12T04:28:09.959Z,76.00
2018-10-12T04:30:38.285Z,76.30
2018-10-12T04:33:06.991Z,76.30
2018-10-12T04:35:35.324Z,76.50
2018-10-12T04:38:03.647Z,76.40
2018-10-12T04:41:16.067Z,76.70
2018-10-12T04:43:45.158Z,77.00
2018-10-12T04:46:16.617Z,76.80
2018-10-12T04:48:46.096Z,77.20
2018-10-12T04:51:32.537Z,77.50
2018-10-12T04:54:00.847Z,77.20
2018-10-12T04:56:29.183Z,77.60
2018-10-12T04:58:57.522Z,77.50
2018-10-12T05:01:25.844Z,77.90
2018-10-12T05:03:54.167Z,77.90
2018-10-12T05:06:22.498Z,77.90
2018-10-12T05:08:50.849Z,78.10
2018-10-12T05:11:19.169Z,78.30
2018-10-12T05:13:47.480Z,78.60
2018-10-12T05:16:15.835Z,78.40
2018-10-12T05:18:44.140Z,78.70
2018-10-12T05:21:12.457Z,78.80
2018-10-12T05:23:40.767Z,78.70
2018-10-12T05:26:09.091Z,79.10
2018-10-12T05:28:38.298Z,79.00
2018-10-12T05:31:06.975Z,79.20
2018-10-12T05:33:35.266Z,79.10
2018-10-12T05:36:03.597Z,79.60
2018-10-12T05:38:32.717Z,80.00
2018-10-12T05:41:01.122Z,80.30
2018-10-12T05:43:29.744Z,80.50
2018-10-12T05:45:57.947Z,80.30
2018-10-12T05:48:37.542Z,80.20
2018-10-12T05:51:06.510Z,80.40
2018-10-12T05:53:35.720Z,80.20
2018-10-12T05:56:04.512Z,80.40
2018-10-12T05:58:33.064Z,80.70
2018-10-12T06:01:01.403Z,80.10
2018-10-12T06:03:29.707Z,80.40
2018-10-12T06:05:58.300Z,80.70
2018-10-12T06:08:26.652Z,80.80
2018-10-12T06:10:54.981Z,80.80
2018-10-12T06:13:23.305Z,81.00
2018-10-12T06:15:51.669Z,81.10
2018-10-12T06:18:19.956Z,81.20
2018-10-12T06:20:48.247Z,81.20
2018-10-12T06:23:16.564Z,81.30
2018-10-12T06:25:44.884Z,81.40
2018-10-12T06:28:13.211Z,81.50
2018-10-12T06:30:41.520Z,81.50
2018-10-12T06:33:09.863Z,81.60
2018-10-12T06:35:38.195Z,81.70
2018-10-12T06:38:06.531Z,81.90
2018-10-12T06:40:34.955Z,81.90
2018-10-12T06:43:03.312Z,82.00
2018-10-12T06:45:31.700Z,82.30
2018-10-12T06:48:00.029Z,82.50
2018-10-12T06:50:28.400Z,82.50
2018-10-12T06:52:56.736Z,82.60
2018-10-12T06:55:25.046Z,82.60
2018-10-12T06:57:53.371Z,82.40
2018-10-12T07:00:21.866Z,82.20
2018-10-12T07:02:50.224Z,82.30
2018-10-12T07:05:18.543Z,82.20
2018-10-12T07:07:46.879Z,82.20
2018-10-12T07:10:15.208Z,82.30
2018-10-12T07:12:43.569Z,82.40
2018-10-12T07:15:11.882Z,82.70
2018-10-12T07:17:40.219Z,82.80
2018-10-12T07:20:08.548Z,83.00
2018-10-12T07:22:36.878Z,83.10
2018-10-12T07:25:05.261Z,83.40
2018-10-12T07:27:33.591Z,83.20
2018-10-12T07:30:01.902Z,83.20
2018-10-12T07:32:30.236Z,83.00
2018-10-12T07:34:58.536Z,83.10
2018-10-12T07:37:26.870Z,83.10
2018-10-12T07:39:55.187Z,82.80
2018-10-12T07:42:23.575Z,82.60
2018-10-12T07:44:51.868Z,82.60
2018-10-12T07:47:20.278Z,82.50
2018-10-12T07:49:48.560Z,82.80
2018-10-12T07:52:16.895Z,82.40
2018-10-12T07:54:45.230Z,82.40
2018-10-12T07:57:14.960Z,82.20
2018-10-12T07:59:44.243Z,82.20
2018-10-12T08:02:13.291Z,82.00
2018-10-12T08:04:42.537Z,81.30
2018-10-12T08:07:11.964Z,81.20
2018-10-12T08:09:40.389Z,81.00
2018-10-12T08:12:08.667Z,81.10
2018-10-12T08:14:36.990Z,81.20
2018-10-12T08:17:05.340Z,81.10
2018-10-12T08:19:33.671Z,81.00
2018-10-12T08:22:01.983Z,80.60
2018-10-12T08:24:30.317Z,80.80
2018-10-12T08:26:58.761Z,80.30
2018-10-12T08:29:28.599Z,79.70
2018-10-12T08:31:57.054Z,79.40
2018-10-12T08:34:25.439Z,79.20
2018-10-12T08:36:53.730Z,78.90
2018-10-12T08:39:22.067Z,78.30
2018-10-12T08:41:50.390Z,78.30
2018-10-12T08:44:18.765Z,78.20
2018-10-12T08:46:47.075Z,78.40
2018-10-12T08:49:15.399Z,78.50
2018-10-12T08:51:43.707Z,77.90
2018-10-12T08:54:12.031Z,77.70
2018-10-12T08:56:40.552Z,77.30
2018-10-12T08:59:08.893Z,77.30
2018-10-12T09:01:37.199Z,76.20
2018-10-12T09:04:05.564Z,74.90
2018-10-12T09:06:33.924Z,74.10
2018-10-12T09:09:02.656Z,73.30
2018-10-12T09:11:30.955Z,73.20
2018-10-12T09:13:59.279Z,73.40
2018-10-12T09:16:27.636Z,72.50
2018-10-12T09:18:55.923Z,71.60
2018-10-12T09:21:24.256Z,71.50
2018-10-12T09:23:52.562Z,70.80
2018-10-12T09:26:20.866Z,70.10
2018-10-12T09:28:49.197Z,70.50
2018-10-12T09:31:17.508Z,70.00
2018-10-12T09:33:45.832Z,70.10
2018-10-12T09:36:14.149Z,69.70
2018-10-12T09:38:42.484Z,69.30
2018-10-12T09:41:10.788Z,68.90
2018-10-12T09:43:39.151Z,68.40
2018-10-12T09:46:07.448Z,68.10
2018-10-12T09:48:35.763Z,68.10
2018-10-12T09:51:04.074Z,67.60
2018-10-12T09:53:32.396Z,66.90
2018-10-12T09:56:00.712Z,66.50
2018-10-12T09:58:29.037Z,65.40
2018-10-12T10:01:02.798Z,65.10
2018-10-12T10:03:36.459Z,63.40
2018-10-12T10:06:04.762Z,62.60
2018-10-12T10:08:33.278Z,62.00
2018-10-12T10:11:01.408Z,62.00
2018-10-12T10:13:29.751Z,61.60
2018-10-12T10:15:58.055Z,61.60
2018-10-12T10:18:26.369Z,61.60
2018-10-12T10:20:54.663Z,60.50
2018-10-12T10:23:22.988Z,60.50
2018-10-12T10:25:51.286Z,60.70
2018-10-12T10:28:19.595Z,60.30
2018-10-12T10:30:47.896Z,59.70
2018-10-12T10:33:16.223Z,59.00
2018-10-12T10:35:44.590Z,59.10
2018-10-12T10:38:12.904Z,58.70
2018-10-12T10:40:41.215Z,58.30
2018-10-12T10:43:09.556Z,58.50
2018-10-12T10:45:37.911Z,57.90
2018-10-12T10:48:06.238Z,57.80
2018-10-12T10:50:34.578Z,57.10
2018-10-12T10:53:02.882Z,57.30
2018-10-12T10:55:31.204Z,57.20
2018-10-12T10:57:59.515Z,57.10
2018-10-12T11:00:27.833Z,56.20
2018-10-12T11:02:56.170Z,55.90
2018-10-12T11:05:24.488Z,55.60
2018-10-12T11:07:52.795Z,55.30
2018-10-12T11:10:21.110Z,54.90
2018-10-12T11:12:49.493Z,54.50
2018-10-12T11:15:17.744Z,54.00
2018-10-12T11:17:46.055Z,53.50
2018-10-12T11:20:14.368Z,53.60
2018-10-12T11:22:42.692Z,53.70
2018-10-12T11:25:11.008Z,53.50
2018-10-12T11:27:39.315Z,51.90
2018-10-12T11:30:07.653Z,50.70
2018-10-12T11:32:36.006Z,50.20
2018-10-12T11:35:04.352Z,50.30
2018-10-12T11:37:32.656Z,49.40
2018-10-12T11:40:00.989Z,47.80
2018-10-12T11:42:40.559Z,47.20
2018-10-12T11:45:09.032Z,47.20
2018-10-12T11:47:37.476Z,46.90
2018-10-12T11:50:05.886Z,46.00
2018-10-12T11:52:34.201Z,45.70
2018-10-12T11:55:02.535Z,45.70
2018-10-12T11:57:30.847Z,45.80
2018-10-12T11:59:59.169Z,45.20
2018-10-12T12:02:27.469Z,45.00
2018-10-12T12:04:55.793Z,45.20
2018-10-12T12:07:24.208Z,44.60
2018-10-12T12:09:52.644Z,44.50
2018-10-12T12:12:21.036Z,44.30
2018-10-12T12:14:49.439Z,43.60
2018-10-12T12:17:17.746Z,43.60
2018-10-12T12:19:46.077Z,43.40
2018-10-12T12:22:14.389Z,43.10
2018-10-12T12:24:42.811Z,43.00
2018-10-12T12:27:11.159Z,42.70
2018-10-12T12:29:39.529Z,42.50
2018-10-12T12:32:07.950Z,43.20
2018-10-12T12:34:36.300Z,42.60
2018-10-12T12:37:04.700Z,42.10
2018-10-12T12:39:33.056Z,42.20
2018-10-12T12:42:01.367Z,42.10
2018-10-12T12:44:29.703Z,41.70
2018-10-12T12:46:58.017Z,41.20
2018-10-12T12:49:26.547Z,41.10
2018-10-12T12:51:54.703Z,41.20
2018-10-12T12:54:23.066Z,40.00
2018-10-12T12:56:51.408Z,40.70
2018-10-12T12:59:19.740Z,40.60
2018-10-12T13:01:48.050Z,40.70
2018-10-12T13:04:16.385Z,40.80
2018-10-12T13:06:44.726Z,40.60
2018-10-12T13:09:13.029Z,40.30
2018-10-12T13:11:41.352Z,40.40
2018-10-12T13:14:09.862Z,40.50
2018-10-12T13:16:38.220Z,39.80
2018-10-12T13:19:06.690Z,39.80
2018-10-12T13:21:35.004Z,40.00
2018-10-12T13:24:03.327Z,40.00
2018-10-12T13:26:31.656Z,40.10
2018-10-12T13:28:59.961Z,40.00
2018-10-12T13:31:28.284Z,40.10
2018-10-12T13:33:56.583Z,40.30
2018-10-12T13:36:24.895Z,40.40
2018-10-12T13:38:53.193Z,40.50
2018-10-12T13:41:21.503Z,40.30
2018-10-12T13:43:49.812Z,40.50
2018-10-12T13:46:18.124Z,40.30
2018-10-12T13:48:46.425Z,40.50
2018-10-12T13:51:14.776Z,40.60
2018-10-12T13:53:43.096Z,40.80
2018-10-12T13:56:11.421Z,41.00
2018-10-12T13:58:39.879Z,40.10
2018-10-12T14:01:08.203Z,40.60
2018-10-12T14:03:36.503Z,41.00
2018-10-12T14:06:04.841Z,41.10
2018-10-12T14:08:33.156Z,41.20
2018-10-12T14:11:01.472Z,41.60
2018-10-12T14:13:29.783Z,41.50
2018-10-12T14:15:58.104Z,41.50
2018-10-12T14:18:26.493Z,41.70
2018-10-12T14:20:54.743Z,41.80
2018-10-12T14:23:23.045Z,41.90
2018-10-12T14:25:51.368Z,41.60
2018-10-12T14:28:19.671Z,41.80
2018-10-12T14:30:48.051Z,42.00
2018-10-12T14:33:16.344Z,42.20
2018-10-12T14:35:47.085Z,41.50
2018-10-12T14:38:15.392Z,41.60
2018-10-12T14:40:43.703Z,41.80
2018-10-12T14:43:12.009Z,42.10
2018-10-12T14:45:40.348Z,42.30
2018-10-12T14:48:08.646Z,43.10
2018-10-12T14:50:36.984Z,42.50
2018-10-12T14:53:05.395Z,42.80
2018-10-12T14:55:33.680Z,43.00
2018-10-12T14:58:01.988Z,42.90
2018-10-12T15:00:30.323Z,43.40
2018-10-12T15:02:58.627Z,43.60
2018-10-12T15:05:27.001Z,43.80
2018-10-12T15:07:55.281Z,44.10
2018-10-12T15:10:23.656Z,44.20
2018-10-12T15:12:51.942Z,44.20
2018-10-12T15:15:27.927Z,44.20
2018-10-12T15:17:57.102Z,44.50
2018-10-12T15:20:25.516Z,44.70
2018-10-12T15:22:53.879Z,44.90
2018-10-12T15:25:22.285Z,45.10
2018-10-12T15:27:50.631Z,45.30
2018-10-12T15:30:19.419Z,45.60
2018-10-12T15:32:47.735Z,45.70
2018-10-12T15:35:16.036Z,46.00
2018-10-12T15:37:44.942Z,46.10
2018-10-12T15:40:13.235Z,46.40
2018-10-12T15:42:41.750Z,46.60
2018-10-12T15:45:10.087Z,46.90
2018-10-12T15:47:38.417Z,47.10
2018-10-12T15:50:06.733Z,47.80
2018-10-12T15:52:35.057Z,47.30
2018-10-12T15:55:03.401Z,47.20
2018-10-12T15:57:32.511Z,47.70
2018-10-12T16:00:00.826Z,47.90
2018-10-12T16:02:29.156Z,48.00
2018-10-12T16:04:57.472Z,48.20
2018-10-12T16:07:25.795Z,48.50
2018-10-12T16:09:54.529Z,48.70
2018-10-12T16:12:23.711Z,49.50
2018-10-12T16:14:52.193Z,49.70
2018-10-12T16:17:20.400Z,49.20
2018-10-12T16:19:48.715Z,49.40
2018-10-12T16:22:17.047Z,49.60
2018-10-12T16:24:57.471Z,49.80
2018-10-12T16:27:25.816Z,50.00
2018-10-12T16:29:54.185Z,50.20
2018-10-12T16:32:22.516Z,50.30
2018-10-12T16:34:50.943Z,50.40
2018-10-12T16:37:19.271Z,50.50
2018-10-12T16:39:47.583Z,50.90
2018-10-12T16:42:16.127Z,51.20
2018-10-12T16:44:44.480Z,51.40
2018-10-12T16:47:12.800Z,51.70
2018-10-12T16:49:41.108Z,52.10
2018-10-12T16:52:09.461Z,52.30
2018-10-12T16:54:37.751Z,52.50
2018-10-12T16:57:06.220Z,52.80
2018-10-12T16:59:34.753Z,53.80
2018-10-12T17:02:03.082Z,53.30
2018-10-12T17:04:31.389Z,53.40
2018-10-12T17:06:59.729Z,53.40
2018-10-12T17:09:28.028Z,53.70
2018-10-12T17:11:56.348Z,53.80
2018-10-12T17:14:24.670Z,54.00
2018-10-12T17:16:53.057Z,54.10
2018-10-12T17:19:21.335Z,54.30
2018-10-12T17:21:49.640Z,54.40
2018-10-12T17:24:17.941Z,54.60
2018-10-12T17:26:46.276Z,54.80
2018-10-12T17:29:14.573Z,55.00
2018-10-12T17:31:42.896Z,55.20
2018-10-12T17:34:11.189Z,55.50
2018-10-12T17:36:39.515Z,55.70
2018-10-12T17:39:10.675Z,55.90
2018-10-12T17:41:38.981Z,56.10
2018-10-12T17:44:07.316Z,56.20
2018-10-12T17:46:35.640Z,56.40
2018-10-12T17:49:03.940Z,56.60
2018-10-12T17:51:32.300Z,56.80
2018-10-12T17:54:00.609Z,56.90
2018-10-12T17:56:29.636Z,57.10
2018-10-12T17:58:58.026Z,57.40
2018-10-12T18:01:26.325Z,57.70
2018-10-12T18:03:54.658Z,58.00
2018-10-12T18:06:23.825Z,58.20
2018-10-12T18:08:52.204Z,58.40
2018-10-12T18:11:20.468Z,58.60
2018-10-12T18:13:48.814Z,58.70
2018-10-12T18:16:17.116Z,58.90
2018-10-12T18:18:45.459Z,59.00
2018-10-12T18:21:13.779Z,59.20
2018-10-12T18:23:42.095Z,59.40
2018-10-12T18:26:10.462Z,59.50
2018-10-12T18:28:38.764Z,59.50
2018-10-12T18:31:07.087Z,59.50
2018-10-12T18:33:35.417Z,59.50
2018-10-12T18:36:03.724Z,59.50
2018-10-12T18:38:32.043Z,59.60
2018-10-12T18:41:00.349Z,59.70
2018-10-12T18:43:28.675Z,59.90
2018-10-12T18:45:57.000Z,60.10
2018-10-12T18:48:25.327Z,60.20
2018-10-12T18:50:53.644Z,60.40
2018-10-12T18:53:21.968Z,60.60
2018-10-12T18:55:50.273Z,61.60
2018-10-12T18:58:18.591Z,61.00
2018-10-12T19:00:46.887Z,61.10
2018-10-12T19:03:15.205Z,61.50
2018-10-12T19:05:43.504Z,61.60
2018-10-12T19:08:11.819Z,61.60
2018-10-12T19:10:40.120Z,61.70
2018-10-12T19:13:08.470Z,61.80
2018-10-12T19:15:36.766Z,61.90
2018-10-12T19:18:05.082Z,62.00
2018-10-12T19:20:33.385Z,62.30
2018-10-12T19:23:01.711Z,62.40
2018-10-12T19:25:30.008Z,62.40
2018-10-12T19:27:58.319Z,62.40
2018-10-12T19:30:26.634Z,62.50
2018-10-12T19:32:54.976Z,62.70
2018-10-12T19:35:23.550Z,62.70
2018-10-12T19:37:51.873Z,62.80
2018-10-12T19:40:20.211Z,63.00
2018-10-12T19:42:48.557Z,63.10
2018-10-12T19:45:16.874Z,63.30
2018-10-12T19:47:45.365Z,63.40
2018-10-12T19:50:13.660Z,63.60
2018-10-12T19:52:42.022Z,63.70
2018-10-12T19:55:10.328Z,63.90
2018-10-12T19:57:38.647Z,64.10
2018-10-12T20:00:06.974Z,64.90
2018-10-12T20:02:35.287Z,64.30
2018-10-12T20:05:03.592Z,64.40
2018-10-12T20:07:31.891Z,64.40
2018-10-12T20:10:00.213Z,64.60
2018-10-12T20:12:28.512Z,64.70
2018-10-12T20:14:56.824Z,64.90
2018-10-12T20:17:25.150Z,65.00
2018-10-12T20:19:53.479Z,65.20
2018-10-12T20:22:21.780Z,65.30
2018-10-12T20:24:50.088Z,65.50
2018-10-12T20:27:18.408Z,65.70
2018-10-12T20:29:46.727Z,65.90
2018-10-12T20:32:15.049Z,66.00
2018-10-12T20:34:43.393Z,66.20
2018-10-12T20:37:11.712Z,66.40
2018-10-12T20:39:40.057Z,66.60
2018-10-12T20:42:08.404Z,66.90
2018-10-12T20:44:36.864Z,67.10
2018-10-12T20:47:05.221Z,67.40
2018-10-12T20:49:33.554Z,67.50
2018-10-12T20:52:01.887Z,67.70
2018-10-12T20:54:30.219Z,67.90
2018-10-12T20:56:58.548Z,68.20
2018-10-12T20:59:26.948Z,68.20
2018-10-12T21:01:55.492Z,68.50
2018-10-12T21:04:23.833Z,68.60
2018-10-12T21:06:52.148Z,68.90
2018-10-12T21:09:20.529Z,69.20
2018-10-12T21:11:48.849Z,69.40
2018-10-12T21:14:17.176Z,69.70
2018-10-12T21:16:45.524Z,69.80
2018-10-12T21:19:13.956Z,70.00
2018-10-12T21:21:42.292Z,70.30
2018-10-12T21:24:10.628Z,70.30
2018-10-12T21:26:38.954Z,70.50
2018-10-12T21:29:07.293Z,70.70
2018-10-12T21:31:35.632Z,70.70
2018-10-12T21:34:03.961Z,70.80
2018-10-12T21:36:32.497Z,70.70
2018-10-12T21:39:00.826Z,70.70
2018-10-12T21:41:29.149Z,70.80
2018-10-12T21:43:57.506Z,70.80
2018-10-12T21:46:25.816Z,70.90
2018-10-12T21:48:54.148Z,71.00
2018-10-12T21:51:22.460Z,71.20
2018-10-12T21:53:50.784Z,71.40
2018-10-12T21:56:19.421Z,71.40
2018-10-12T21:58:47.848Z,71.40
2018-10-12T22:01:16.183Z,71.50
2018-10-12T22:03:44.530Z,71.60
2018-10-12T22:06:12.860Z,71.80
2018-10-12T22:08:57.471Z,72.00
2018-10-12T22:11:25.803Z,72.20
2018-10-12T22:13:54.209Z,72.40
2018-10-12T22:16:22.597Z,72.50
2018-10-12T22:18:50.932Z,72.70
2018-10-12T22:21:19.256Z,72.60
2018-10-12T22:23:47.583Z,72.50
2018-10-12T22:26:15.967Z,72.30
2018-10-12T22:28:44.277Z,72.40
2018-10-12T22:31:12.625Z,72.50
2018-10-12T22:33:40.939Z,72.70
2018-10-12T22:36:09.268Z,72.90
2018-10-12T22:38:37.611Z,73.00
2018-10-12T22:41:05.979Z,73.20
2018-10-12T22:43:34.300Z,73.40
2018-10-12T22:46:02.691Z,73.50
2018-10-12T22:48:31.016Z,73.60
2018-10-12T22:50:59.354Z,73.70
2018-10-12T22:53:27.733Z,73.60
2018-10-12T22:55:56.071Z,73.70
2018-10-12T22:58:24.390Z,74.00
2018-10-12T23:00:52.807Z,73.80
2018-10-12T23:03:21.116Z,73.80
2018-10-12T23:05:49.478Z,73.80
2018-10-12T23:08:17.801Z,74.00
2018-10-12T23:10:46.177Z,74.10
2018-10-12T23:13:14.487Z,73.80
2018-10-12T23:15:42.809Z,73.70
2018-10-12T23:18:11.108Z,73.70
2018-10-12T23:20:39.440Z,73.80
2018-10-12T23:23:07.748Z,74.10
2018-10-12T23:25:36.060Z,74.70
2018-10-12T23:28:04.354Z,75.00
2018-10-12T23:30:32.677Z,75.20
2018-10-12T23:33:12.223Z,75.50
2018-10-12T23:35:40.530Z,76.40
2018-10-12T23:38:08.827Z,75.60
2018-10-12T23:40:37.141Z,75.70
2018-10-12T23:43:05.510Z,75.60
2018-10-12T23:45:33.848Z,75.50
2018-10-12T23:48:02.134Z,75.50
2018-10-12T23:50:30.452Z,75.60
2018-10-12T23:52:58.762Z,75.50
2018-10-12T23:55:27.108Z,75.30
2018-10-12T23:57:55.404Z,75.30
